createdAt,value
2018-11-28T00:02:06.971Z,0.60
2018-11-28T00:07:10.101Z,0.50
2018-11-28T00:12:13.206Z,0.50
2018-11-28T00:17:16.326Z,0.40
2018-11-28T00:22:19.641Z,0.40
2018-11-28T00:27:22.820Z,0.30
2018-11-28T00:32:25.935Z,0.30
2018-11-28T00:37:29.048Z,0.20
2018-11-28T00:42:32.172Z,0.20
2018-11-28T00:47:35.306Z,0.10
2018-11-28T00:52:38.581Z,0.00
2018-11-28T00:57:41.763Z,0.00
2018-11-28T01:02:45.042Z,0.00
2018-11-28T01:07:49.962Z,-0.10
2018-11-28T01:12:53.765Z,-0.10
2018-11-28T01:17:56.875Z,-0.20
2018-11-28T01:22:59.986Z,-0.30
2018-11-28T01:28:03.090Z,-0.30
2018-11-28T01:33:06.495Z,-0.40
2018-11-28T01:38:09.615Z,-0.40
2018-11-28T01:43:12.722Z,-0.50
2018-11-28T01:48:15.850Z,-0.50
2018-11-28T01:53:18.996Z,-0.60
2018-11-28T01:58:22.136Z,-0.60
2018-11-28T02:03:25.226Z,-0.70
2018-11-28T02:08:28.349Z,-0.70
2018-11-28T02:13:32.502Z,-0.80
2018-11-28T02:18:35.639Z,-0.80
2018-11-28T02:23:38.778Z,-0.90
2018-11-28T02:28:41.978Z,-0.90
2018-11-28T02:33:45.104Z,-0.90
2018-11-28T02:38:48.237Z,-1.00
2018-11-28T02:43:51.370Z,-1.00
2018-11-28T02:48:54.486Z,-1.10
2018-11-28T02:53:57.595Z,-1.10
2018-11-28T02:59:00.703Z,-1.10
2018-11-28T03:04:03.813Z,-1.10
2018-11-28T03:09:08.107Z,-1.10
2018-11-28T03:14:11.218Z,-1.10
2018-11-28T03:19:14.318Z,-1.10
2018-11-28T03:24:17.455Z,-1.00
2018-11-28T03:29:20.607Z,-1.00
2018-11-28T03:34:23.739Z,-1.00
2018-11-28T03:39:26.844Z,-0.90
2018-11-28T03:44:29.963Z,-0.90
2018-11-28T03:49:33.075Z,-0.80
2018-11-28T03:54:36.199Z,-0.80
2018-11-28T03:59:39.327Z,-0.80
2018-11-28T04:04:42.428Z,-0.80
2018-11-28T04:09:45.551Z,-0.70
2018-11-28T04:14:48.659Z,-0.70
2018-11-28T04:19:51.770Z,-0.70
2018-11-28T04:24:54.883Z,-0.60
2018-11-28T04:29:58.002Z,-0.60
2018-11-28T04:35:01.127Z,-0.60
2018-11-28T04:40:06.839Z,-0.50
2018-11-28T04:45:13.828Z,-0.50
2018-11-28T04:50:16.941Z,-0.50
2018-11-28T04:55:20.475Z,-0.50
2018-11-28T05:00:26.688Z,-0.40
2018-11-28T05:05:29.809Z,-0.40
2018-11-28T05:10:32.915Z,-0.40
2018-11-28T05:15:36.035Z,-0.40
2018-11-28T05:20:39.142Z,-0.40
2018-11-28T05:25:42.243Z,-0.30
2018-11-28T05:30:45.370Z,-0.30
2018-11-28T05:35:48.509Z,-0.30
2018-11-28T05:40:51.619Z,-0.30
2018-11-28T05:45:54.739Z,-0.20
2018-11-28T05:50:57.871Z,-0.20
2018-11-28T05:56:00.982Z,-0.20
2018-11-28T06:01:04.103Z,-0.20
2018-11-28T06:06:07.215Z,-0.20
2018-11-28T06:11:10.330Z,-0.20
2018-11-28T06:16:13.439Z,-0.20
2018-11-28T06:21:16.549Z,-0.10
2018-11-28T06:31:19.046Z,-0.10
2018-11-28T06:36:22.146Z,-0.10
2018-11-28T06:41:25.274Z,-0.10
2018-11-28T06:46:28.387Z,-0.10
2018-11-28T06:51:31.507Z,-0.10
2018-11-28T06:56:34.637Z,-0.10
2018-11-28T07:01:37.751Z,-0.10
2018-11-28T07:06:40.866Z,-0.10
2018-11-28T07:11:43.986Z,-0.10
2018-11-28T07:16:47.105Z,-0.10
2018-11-28T07:21:50.216Z,-0.10
2018-11-28T07:26:53.334Z,-0.10
2018-11-28T07:31:56.490Z,-0.10
2018-11-28T07:36:59.603Z,-0.10
2018-11-28T07:42:02.715Z,-0.10
2018-11-28T07:47:05.823Z,0.00
2018-11-28T07:52:08.939Z,0.00
2018-11-28T07:57:12.066Z,0.00
2018-11-28T08:02:15.179Z,0.00
2018-11-28T08:07:18.310Z,0.00
2018-11-28T08:12:21.418Z,0.00
2018-11-28T08:17:24.586Z,0.10
2018-11-28T08:22:27.674Z,0.10
2018-11-28T08:27:30.778Z,0.10
2018-11-28T08:32:33.891Z,0.10
2018-11-28T08:37:37.058Z,0.20
2018-11-28T08:42:40.166Z,0.20
2018-11-28T08:47:43.655Z,0.20
2018-11-28T08:52:46.767Z,0.30
2018-11-28T08:57:49.890Z,0.30
2018-11-28T09:02:54.053Z,0.30
2018-11-28T09:07:57.169Z,0.40
2018-11-28T09:13:04.029Z,0.40
2018-11-28T09:18:03.419Z,0.50
2018-11-28T09:23:06.993Z,0.50
2018-11-28T09:28:10.072Z,0.50
2018-11-28T09:33:13.166Z,0.60
2018-11-28T09:38:16.278Z,0.60
2018-11-28T09:43:19.381Z,0.70
2018-11-28T09:48:22.503Z,0.70
2018-11-28T09:53:25.610Z,0.70
2018-11-28T09:58:28.726Z,0.80
2018-11-28T10:03:31.840Z,0.80
2018-11-28T10:08:34.947Z,0.80
2018-11-28T10:13:38.054Z,0.90
2018-11-28T10:18:41.167Z,0.90
2018-11-28T10:23:44.278Z,0.90
2018-11-28T10:28:47.538Z,1.00
2018-11-28T10:33:50.767Z,1.00
2018-11-28T10:38:53.872Z,1.10
2018-11-28T10:43:56.990Z,1.10
2018-11-28T10:49:00.119Z,1.20
2018-11-28T10:54:03.246Z,1.30
2018-11-28T10:59:06.364Z,1.30
2018-11-28T11:04:14.378Z,1.30
2018-11-28T11:09:22.938Z,1.40
2018-11-28T11:14:31.398Z,1.40
2018-11-28T11:19:34.494Z,1.40
2018-11-28T11:24:37.606Z,1.40
2018-11-28T11:29:40.986Z,1.40
2018-11-28T11:34:43.827Z,1.40
2018-11-28T11:39:46.931Z,1.40
2018-11-28T11:44:50.042Z,1.50
2018-11-28T11:49:53.158Z,1.50
2018-11-28T11:54:56.295Z,1.50
2018-11-28T11:59:59.402Z,1.50
2018-11-28T12:05:02.515Z,1.50
2018-11-28T12:10:10.491Z,1.50
2018-11-28T12:15:14.725Z,1.50
2018-11-28T12:20:20.824Z,1.50
2018-11-28T12:25:23.949Z,1.50
2018-11-28T12:30:27.066Z,1.50
2018-11-28T12:35:30.244Z,1.50
2018-11-28T12:40:34.298Z,1.50
2018-11-28T12:45:40.279Z,1.50
2018-11-28T12:50:43.478Z,1.40
2018-11-28T12:55:46.611Z,1.40
2018-11-28T13:00:49.726Z,1.40
2018-11-28T13:05:52.910Z,1.40
2018-11-28T13:10:56.039Z,1.40
2018-11-28T13:15:59.250Z,1.40
2018-11-28T13:21:02.407Z,1.40
2018-11-28T13:26:05.942Z,1.40
2018-11-28T13:31:09.047Z,1.40
2018-11-28T13:36:12.216Z,1.30
2018-11-28T13:41:15.772Z,1.30
2018-11-28T13:46:20.754Z,1.30
2018-11-28T13:51:24.933Z,1.30
2018-11-28T13:56:58.505Z,1.30
2018-11-28T14:01:31.162Z,1.30
2018-11-28T14:06:34.268Z,1.30
2018-11-28T14:11:37.376Z,1.20
2018-11-28T14:16:40.522Z,1.20
2018-11-28T14:21:43.661Z,1.20
2018-11-28T14:26:46.787Z,1.20
2018-11-28T14:31:49.887Z,1.20
2018-11-28T14:36:53.020Z,1.20
2018-11-28T14:41:56.182Z,1.10
2018-11-28T14:46:59.294Z,1.20
2018-11-28T14:52:02.409Z,1.10
2018-11-28T14:57:06.300Z,1.10
2018-11-28T15:02:09.403Z,1.10
2018-11-28T15:07:12.514Z,1.10
2018-11-28T15:12:15.754Z,1.10
2018-11-28T15:17:18.882Z,1.10
2018-11-28T15:22:22.007Z,1.10
2018-11-28T15:27:25.127Z,1.20
2018-11-28T15:32:28.912Z,1.10
2018-11-28T15:37:32.038Z,1.10
2018-11-28T15:42:36.278Z,1.10
2018-11-28T15:47:39.415Z,1.10
2018-11-28T15:52:42.526Z,1.10
2018-11-28T15:57:45.659Z,1.10
2018-11-28T16:02:48.787Z,1.10
2018-11-28T16:07:51.925Z,1.10
2018-11-28T16:12:55.199Z,1.10
2018-11-28T16:17:58.371Z,1.10
2018-11-28T16:23:04.353Z,1.10
2018-11-28T16:28:04.665Z,1.10
2018-11-28T16:33:07.958Z,1.10
2018-11-28T16:38:11.124Z,1.10
2018-11-28T16:43:14.277Z,1.00
2018-11-28T16:48:17.496Z,1.10
2018-11-28T16:53:20.640Z,1.00
2018-11-28T16:58:23.775Z,1.00
2018-11-28T17:03:27.000Z,1.00
2018-11-28T17:08:30.239Z,1.00
2018-11-28T17:13:33.350Z,1.00
2018-11-28T17:18:36.512Z,0.90
2018-11-28T17:23:39.638Z,0.90
2018-11-28T17:28:42.788Z,0.90
2018-11-28T17:33:45.928Z,0.90
2018-11-28T17:38:49.042Z,0.90
2018-11-28T17:43:52.162Z,0.90
2018-11-28T17:48:55.307Z,0.90
2018-11-28T17:53:58.414Z,0.80
2018-11-28T17:59:01.539Z,0.90
2018-11-28T18:04:05.077Z,0.80
2018-11-28T18:09:10.310Z,0.80
2018-11-28T18:14:13.436Z,0.80
2018-11-28T18:19:16.587Z,0.80
2018-11-28T18:24:19.718Z,0.80
2018-11-28T18:29:22.838Z,0.80
2018-11-28T18:34:25.959Z,0.70
2018-11-28T18:39:29.263Z,0.70
2018-11-28T18:44:34.776Z,0.70
2018-11-28T18:49:37.956Z,0.60
2018-11-28T18:54:41.098Z,0.60
2018-11-28T18:59:44.226Z,0.50
2018-11-28T19:04:47.463Z,0.50
2018-11-28T19:09:51.924Z,0.40
2018-11-28T19:14:55.075Z,0.40
2018-11-28T19:19:58.207Z,0.30
2018-11-28T19:25:02.423Z,0.30
2018-11-28T19:30:39.886Z,0.20
2018-11-28T19:35:43.120Z,0.20
2018-11-28T19:40:57.858Z,0.10
2018-11-28T19:46:00.979Z,0.10
2018-11-28T19:51:04.086Z,0.10
2018-11-28T19:56:07.206Z,0.00
2018-11-28T20:01:10.338Z,0.00
2018-11-28T20:06:13.511Z,-0.10
2018-11-28T20:11:16.642Z,-0.10
2018-11-28T20:16:19.792Z,-0.20
2018-11-28T20:21:22.903Z,-0.20
2018-11-28T20:26:26.047Z,-0.30
2018-11-28T20:31:29.167Z,-0.30
2018-11-28T20:36:32.294Z,-0.40
2018-11-28T20:41:35.418Z,-0.40
2018-11-28T20:46:38.543Z,-0.40
2018-11-28T20:51:41.679Z,-0.50
2018-11-28T20:56:44.782Z,-0.50
2018-11-28T21:01:47.901Z,-0.50
2018-11-28T21:06:51.006Z,-0.60
2018-11-28T21:11:54.130Z,-0.60
2018-11-28T21:16:57.250Z,-0.70
2018-11-28T21:22:00.376Z,-0.70
2018-11-28T21:27:03.498Z,-0.70
2018-11-28T21:32:06.622Z,-0.80
2018-11-28T21:37:09.775Z,-0.80
2018-11-28T21:42:12.922Z,-0.80
2018-11-28T21:47:16.038Z,-0.90
2018-11-28T21:52:19.162Z,-0.90
2018-11-28T21:57:22.268Z,-0.90
2018-11-28T22:02:25.396Z,-0.90
2018-11-28T22:07:28.509Z,-1.00
2018-11-28T22:12:31.615Z,-1.00
2018-11-28T22:17:34.754Z,-1.00
2018-11-28T22:22:37.949Z,-1.10
2018-11-28T22:27:41.067Z,-1.10
2018-11-28T22:32:44.335Z,-1.20
2018-11-28T22:37:47.442Z,-1.20
2018-11-28T22:42:50.563Z,-1.20
2018-11-28T22:47:53.679Z,-1.30
2018-11-28T22:52:56.816Z,-1.30
2018-11-28T22:57:59.930Z,-1.40
2018-11-28T23:03:07.456Z,-1.40
2018-11-28T23:08:11.525Z,-1.40
2018-11-28T23:13:16.830Z,-1.50
2018-11-28T23:18:19.937Z,-1.50
2018-11-28T23:23:23.152Z,-1.50
2018-11-28T23:28:26.286Z,-1.50
2018-11-28T23:33:29.399Z,-1.60
2018-11-28T23:38:32.510Z,-1.60
2018-11-28T23:43:36.459Z,-1.60
2018-11-28T23:48:39.574Z,-1.70
2018-11-28T23:53:42.675Z,-1.70
2018-11-28T23:58:45.779Z,-1.70
